CSZ8368 ZSZS-ZHCC
Flight info
| Callsign | CSZ8368 |
|---|---|
| Flight time | N/A |
| Altitude | 38100 |
| Route | HSN W67 BK W58 SHZ G204 UGAGO/K0848S1130 A470 TOL A599 KAKIS/K0852S1160 W135 DOGVI W545 VEMEX W163 HFE B208 FYG W596 UNTEL UNT5V |
| Aircraft | A333/H-SDE3GHIJ2J3J5M1RVWXY/LB2D1 |
Departure
| Time | N/A |
|---|---|
| Airport | Zhoushan Putuoshan International Airport (ZSZS) |
Arrival
| Time | 2026-04-21 13:22 |
|---|---|
| Airport | Zhengzhou Xinzheng International Airport (ZHCC) |
| Time | Latitude | Longitude | Altitude | Speed | Heading |
|---|---|---|---|---|---|
| 2026-04-21 11:57 | 29.70351 | 121.41286 | 27630 ft | 413 kts | 259° |
| 2026-04-21 11:57 | 29.69795 | 121.38041 | 27991 ft | 415 kts | 259° |
| 2026-04-21 11:57 | 29.69235 | 121.34773 | 28350 ft | 417 kts | 259° |
| 2026-04-21 11:58 | 29.68672 | 121.31492 | 28705 ft | 420 kts | 259° |
| 2026-04-21 11:58 | 29.68279 | 121.28155 | 29046 ft | 422 kts | 266° |
| 2026-04-21 11:58 | 29.68281 | 121.24765 | 29348 ft | 426 kts | 274° |
| 2026-04-21 11:58 | 29.68759 | 121.21384 | 29593 ft | 432 kts | 283° |
| 2026-04-21 11:59 | 29.69766 | 121.18111 | 29905 ft | 437 kts | 292° |
| 2026-04-21 11:59 | 29.71294 | 121.15070 | 30263 ft | 442 kts | 302° |
| 2026-04-21 11:59 | 29.73167 | 121.12264 | 30646 ft | 443 kts | 306° |
| 2026-04-21 11:59 | 29.75165 | 121.09608 | 30951 ft | 446 kts | 308° |
| 2026-04-21 12:00 | 29.77265 | 121.06965 | 31201 ft | 449 kts | 309° |
| 2026-04-21 12:00 | 29.79395 | 121.04326 | 31484 ft | 451 kts | 309° |
| 2026-04-21 12:00 | 29.81525 | 121.01676 | 31854 ft | 451 kts | 309° |
| 2026-04-21 12:00 | 29.83639 | 120.99018 | 32291 ft | 448 kts | 309° |
| 2026-04-21 12:01 | 29.85722 | 120.96366 | 32752 ft | 446 kts | 309° |
| 2026-04-21 12:01 | 29.87791 | 120.93710 | 33192 ft | 444 kts | 308° |
| 2026-04-21 12:01 | 29.89842 | 120.91065 | 33651 ft | 441 kts | 308° |
| 2026-04-21 12:01 | 29.91879 | 120.88428 | 34060 ft | 440 kts | 308° |
| 2026-04-21 12:02 | 29.93909 | 120.85796 | 34402 ft | 439 kts | 308° |
| 2026-04-21 12:02 | 29.97950 | 120.80554 | 35096 ft | 436 kts | 308° |
| 2026-04-21 12:02 | 29.99961 | 120.77946 | 35445 ft | 434 kts | 308° |
| 2026-04-21 12:03 | 30.01964 | 120.75345 | 35759 ft | 433 kts | 308° |
| 2026-04-21 12:03 | 30.03958 | 120.72756 | 36071 ft | 431 kts | 308° |
| 2026-04-21 12:03 | 30.05947 | 120.70171 | 36375 ft | 430 kts | 308° |
| 2026-04-21 12:03 | 30.07930 | 120.67593 | 36671 ft | 429 kts | 308° |
| 2026-04-21 12:04 | 30.09910 | 120.65016 | 36966 ft | 428 kts | 308° |
| 2026-04-21 12:04 | 30.11885 | 120.62444 | 37277 ft | 427 kts | 308° |
| 2026-04-21 12:04 | 30.13850 | 120.59885 | 37568 ft | 426 kts | 308° |
| 2026-04-21 12:04 | 30.15813 | 120.57325 | 37847 ft | 424 kts | 308° |
| 2026-04-21 12:05 | 30.17767 | 120.54776 | 38046 ft | 424 kts | 308° |
| 2026-04-21 12:05 | 30.21663 | 120.49689 | 38065 ft | 420 kts | 308° |
| 2026-04-21 12:06 | 30.25524 | 120.44640 | 38068 ft | 419 kts | 308° |
| 2026-04-21 12:06 | 30.29386 | 120.39582 | 38070 ft | 419 kts | 307° |
| 2026-04-21 12:07 | 30.33241 | 120.34530 | 38069 ft | 418 kts | 307° |
| 2026-04-21 12:07 | 30.37082 | 120.29488 | 38063 ft | 417 kts | 307° |
| 2026-04-21 12:08 | 30.40920 | 120.24443 | 38063 ft | 417 kts | 307° |
| 2026-04-21 12:08 | 30.44757 | 120.19394 | 38079 ft | 417 kts | 307° |
| 2026-04-21 12:09 | 30.48766 | 120.14525 | 38056 ft | 420 kts | 315° |
| 2026-04-21 12:09 | 30.53395 | 120.10352 | 38058 ft | 423 kts | 318° |
| 2026-04-21 12:10 | 30.58151 | 120.06321 | 38061 ft | 424 kts | 319° |
| 2026-04-21 12:10 | 30.62929 | 120.02311 | 38059 ft | 424 kts | 319° |
| 2026-04-21 12:11 | 30.67698 | 119.98286 | 38057 ft | 424 kts | 318° |
| 2026-04-21 12:11 | 30.72457 | 119.94250 | 38056 ft | 424 kts | 318° |
| 2026-04-21 12:12 | 30.77210 | 119.90204 | 38062 ft | 424 kts | 318° |
| 2026-04-21 12:12 | 30.81954 | 119.86137 | 38055 ft | 424 kts | 318° |
| 2026-04-21 12:13 | 30.86693 | 119.82062 | 38057 ft | 424 kts | 318° |
| 2026-04-21 12:13 | 30.91444 | 119.77974 | 38052 ft | 425 kts | 318° |
| 2026-04-21 12:14 | 30.96203 | 119.73876 | 38052 ft | 426 kts | 318° |
| 2026-04-21 12:14 | 31.00933 | 119.69798 | 38047 ft | 426 kts | 318° |
| 2026-04-21 12:15 | 31.05690 | 119.65692 | 38045 ft | 425 kts | 317° |
| 2026-04-21 12:15 | 31.10445 | 119.61582 | 38048 ft | 426 kts | 318° |
| 2026-04-21 12:16 | 31.15203 | 119.57464 | 38040 ft | 426 kts | 318° |
| 2026-04-21 12:16 | 31.19964 | 119.53339 | 38044 ft | 426 kts | 317° |
| 2026-04-21 12:17 | 31.24737 | 119.49197 | 38042 ft | 429 kts | 317° |
| 2026-04-21 12:17 | 31.29526 | 119.45036 | 38035 ft | 429 kts | 317° |
| 2026-04-21 12:18 | 31.34322 | 119.40864 | 38038 ft | 429 kts | 317° |
| 2026-04-21 12:18 | 31.39114 | 119.36689 | 38073 ft | 429 kts | 318° |
| 2026-04-21 12:19 | 31.43895 | 119.32520 | 38031 ft | 428 kts | 318° |
| 2026-04-21 12:19 | 31.48657 | 119.28362 | 38037 ft | 427 kts | 318° |
| 2026-04-21 12:20 | 31.53425 | 119.24193 | 38036 ft | 428 kts | 317° |
| 2026-04-21 12:20 | 31.58192 | 119.20006 | 38032 ft | 429 kts | 317° |
| 2026-04-21 12:21 | 31.62962 | 119.15775 | 38030 ft | 429 kts | 317° |
| 2026-04-21 12:21 | 31.67589 | 119.11371 | 38034 ft | 427 kts | 314° |
| 2026-04-21 12:22 | 31.72035 | 119.06768 | 38029 ft | 425 kts | 313° |
| 2026-04-21 12:22 | 31.76460 | 119.02164 | 38031 ft | 424 kts | 313° |
| 2026-04-21 12:23 | 31.80488 | 118.97209 | 38051 ft | 416 kts | 301° |
| 2026-04-21 12:23 | 31.83123 | 118.91309 | 38039 ft | 408 kts | 285° |
| 2026-04-21 12:24 | 31.84247 | 118.84810 | 38040 ft | 405 kts | 271° |
| 2026-04-21 12:24 | 31.83949 | 118.78161 | 38038 ft | 405 kts | 264° |
| 2026-04-21 12:25 | 31.83340 | 118.71613 | 38033 ft | 406 kts | 263° |
| 2026-04-21 12:25 | 31.82701 | 118.65022 | 38037 ft | 406 kts | 263° |
| 2026-04-21 12:26 | 31.82087 | 118.58420 | 38015 ft | 407 kts | 263° |
| 2026-04-21 12:26 | 31.81486 | 118.51806 | 38026 ft | 406 kts | 263° |
| 2026-04-21 12:27 | 31.80888 | 118.45216 | 38020 ft | 405 kts | 263° |
| 2026-04-21 12:27 | 31.80286 | 118.38633 | 38007 ft | 405 kts | 263° |
| 2026-04-21 12:28 | 31.79681 | 118.32047 | 38013 ft | 405 kts | 263° |
| 2026-04-21 12:28 | 31.79309 | 118.25434 | 38021 ft | 406 kts | 266° |
| 2026-04-21 12:29 | 31.79212 | 118.18807 | 38004 ft | 406 kts | 268° |
| 2026-04-21 12:29 | 31.79135 | 118.12179 | 38008 ft | 406 kts | 267° |
| 2026-04-21 12:30 | 31.79031 | 118.05547 | 38008 ft | 406 kts | 267° |
| 2026-04-21 12:30 | 31.78925 | 117.98922 | 38007 ft | 406 kts | 267° |
| 2026-04-21 12:31 | 31.78814 | 117.92288 | 38009 ft | 406 kts | 267° |
| 2026-04-21 12:31 | 31.78699 | 117.85656 | 38008 ft | 406 kts | 267° |
| 2026-04-21 12:32 | 31.78580 | 117.79031 | 38008 ft | 406 kts | 267° |
| 2026-04-21 12:32 | 31.78459 | 117.72450 | 38009 ft | 405 kts | 267° |
| 2026-04-21 12:33 | 31.78329 | 117.65835 | 37993 ft | 403 kts | 266° |
| 2026-04-21 12:33 | 31.78185 | 117.59264 | 38006 ft | 402 kts | 266° |
| 2026-04-21 12:34 | 31.78035 | 117.52692 | 38003 ft | 402 kts | 266° |
| 2026-04-21 12:34 | 31.77883 | 117.46115 | 37996 ft | 402 kts | 266° |
| 2026-04-21 12:35 | 31.77729 | 117.39541 | 37999 ft | 402 kts | 266° |
| 2026-04-21 12:35 | 31.78222 | 117.32980 | 38002 ft | 407 kts | 279° |
| 2026-04-21 12:36 | 31.80319 | 117.26738 | 38002 ft | 418 kts | 295° |
| 2026-04-21 12:36 | 31.83848 | 117.21212 | 38003 ft | 426 kts | 303° |
| 2026-04-21 12:37 | 31.87710 | 117.15910 | 38023 ft | 427 kts | 304° |
| 2026-04-21 12:37 | 31.91616 | 117.10601 | 38031 ft | 430 kts | 304° |
| 2026-04-21 12:38 | 31.95503 | 117.05252 | 38039 ft | 431 kts | 304° |
| 2026-04-21 12:38 | 31.99390 | 116.99861 | 38038 ft | 432 kts | 304° |
| 2026-04-21 12:39 | 32.03283 | 116.94462 | 38040 ft | 432 kts | 304° |
| 2026-04-21 12:39 | 32.07176 | 116.89064 | 38036 ft | 432 kts | 304° |
| 2026-04-21 12:40 | 32.11039 | 116.83698 | 38032 ft | 433 kts | 304° |
| 2026-04-21 12:40 | 32.14936 | 116.78276 | 38030 ft | 433 kts | 304° |
| 2026-04-21 12:41 | 32.18201 | 116.73729 | 38031 ft | 433 kts | 304° |
| 2026-04-21 12:41 | 32.22671 | 116.67371 | 38025 ft | 433 kts | 303° |
| 2026-04-21 12:42 | 32.26480 | 116.61867 | 38028 ft | 433 kts | 303° |
| 2026-04-21 12:42 | 32.29649 | 116.57285 | 38049 ft | 433 kts | 303° |
| 2026-04-21 12:43 | 32.33457 | 116.51783 | 38035 ft | 432 kts | 303° |
| 2026-04-21 12:43 | 32.37255 | 116.46293 | 38039 ft | 431 kts | 303° |
| 2026-04-21 12:44 | 32.41048 | 116.40802 | 38038 ft | 431 kts | 303° |
| 2026-04-21 12:44 | 32.44840 | 116.35303 | 38047 ft | 431 kts | 303° |
| 2026-04-21 12:45 | 32.48630 | 116.29801 | 38049 ft | 431 kts | 303° |
| 2026-04-21 12:45 | 32.52421 | 116.24287 | 38056 ft | 432 kts | 303° |
| 2026-04-21 12:46 | 32.56226 | 116.18748 | 38052 ft | 435 kts | 304° |
| 2026-04-21 12:46 | 32.60103 | 116.13229 | 38063 ft | 436 kts | 304° |
| 2026-04-21 12:47 | 32.64020 | 116.07736 | 38063 ft | 436 kts | 304° |
| 2026-04-21 12:47 | 32.67939 | 116.02234 | 38064 ft | 436 kts | 304° |
| 2026-04-21 12:48 | 32.71842 | 115.96729 | 38068 ft | 436 kts | 304° |
| 2026-04-21 12:48 | 32.75745 | 115.91209 | 38073 ft | 436 kts | 304° |
| 2026-04-21 12:49 | 32.79634 | 115.85701 | 38080 ft | 435 kts | 304° |
| 2026-04-21 12:49 | 32.83521 | 115.80187 | 38076 ft | 435 kts | 304° |
| 2026-04-21 12:50 | 32.87500 | 115.74767 | 38086 ft | 439 kts | 310° |
| 2026-04-21 12:50 | 32.92464 | 115.70370 | 38091 ft | 449 kts | 321° |
| 2026-04-21 12:51 | 32.97798 | 115.66476 | 38089 ft | 451 kts | 323° |
| 2026-04-21 12:51 | 33.03169 | 115.62690 | 38105 ft | 451 kts | 322° |
| 2026-04-21 12:52 | 33.08574 | 115.58859 | 38091 ft | 452 kts | 322° |
| 2026-04-21 12:52 | 33.11259 | 115.56916 | 37665 ft | 450 kts | 319° |
| 2026-04-21 12:52 | 33.13614 | 115.54542 | 37053 ft | 439 kts | 308° |
| 2026-04-21 12:52 | 33.15687 | 115.51895 | 36309 ft | 434 kts | 306° |
| 2026-04-21 12:53 | 33.17692 | 115.49209 | 35271 ft | 433 kts | 306° |
| 2026-04-21 12:53 | 33.19688 | 115.46493 | 34061 ft | 436 kts | 306° |
| 2026-04-21 12:53 | 33.21693 | 115.43751 | 32661 ft | 440 kts | 306° |
| 2026-04-21 12:53 | 33.23710 | 115.40986 | 31165 ft | 445 kts | 306° |
| 2026-04-21 12:54 | 33.25748 | 115.38188 | 29634 ft | 450 kts | 306° |
| 2026-04-21 12:54 | 33.27801 | 115.35371 | 28383 ft | 446 kts | 306° |
| 2026-04-21 12:54 | 33.29824 | 115.32597 | 27296 ft | 438 kts | 306° |
| 2026-04-21 12:54 | 33.31806 | 115.29874 | 26199 ft | 432 kts | 306° |
| 2026-04-21 12:55 | 33.33766 | 115.27177 | 25129 ft | 426 kts | 306° |
| 2026-04-21 12:55 | 33.35695 | 115.24519 | 24095 ft | 422 kts | 306° |
| 2026-04-21 12:55 | 33.37611 | 115.21877 | 22974 ft | 417 kts | 306° |
| 2026-04-21 12:55 | 33.39497 | 115.19273 | 21822 ft | 412 kts | 306° |
| 2026-04-21 12:56 | 33.41353 | 115.16712 | 20862 ft | 403 kts | 306° |
| 2026-04-21 12:56 | 33.43172 | 115.14199 | 19885 ft | 396 kts | 306° |
| 2026-04-21 12:56 | 33.44963 | 115.11722 | 18906 ft | 391 kts | 306° |
| 2026-04-21 12:56 | 33.46733 | 115.09270 | 17865 ft | 387 kts | 306° |
| 2026-04-21 12:57 | 33.48480 | 115.06850 | 16828 ft | 381 kts | 306° |
| 2026-04-21 12:57 | 33.50201 | 115.04465 | 15834 ft | 375 kts | 306° |
| 2026-04-21 12:57 | 33.51891 | 115.02121 | 14899 ft | 369 kts | 306° |
| 2026-04-21 12:57 | 33.53552 | 114.99817 | 14006 ft | 363 kts | 307° |
| 2026-04-21 12:58 | 33.55189 | 114.97543 | 13240 ft | 358 kts | 307° |
| 2026-04-21 12:58 | 33.56811 | 114.95286 | 12823 ft | 357 kts | 307° |
| 2026-04-21 12:58 | 33.58429 | 114.93033 | 12727 ft | 356 kts | 307° |
| 2026-04-21 12:58 | 33.60045 | 114.90783 | 12733 ft | 357 kts | 307° |
| 2026-04-21 12:59 | 33.61665 | 114.88528 | 12735 ft | 356 kts | 307° |
| 2026-04-21 12:59 | 33.63278 | 114.86281 | 12745 ft | 355 kts | 307° |
| 2026-04-21 12:59 | 33.64886 | 114.84040 | 12740 ft | 354 kts | 307° |
| 2026-04-21 12:59 | 33.66492 | 114.81801 | 12738 ft | 353 kts | 307° |
| 2026-04-21 13:00 | 33.68092 | 114.79570 | 12737 ft | 353 kts | 307° |
| 2026-04-21 13:00 | 33.69678 | 114.77369 | 12739 ft | 353 kts | 308° |
| 2026-04-21 13:00 | 33.71463 | 114.75325 | 12652 ft | 355 kts | 316° |
| 2026-04-21 13:00 | 33.73371 | 114.73448 | 12553 ft | 355 kts | 317° |
| 2026-04-21 13:01 | 33.75305 | 114.71593 | 12541 ft | 356 kts | 317° |
| 2026-04-21 13:01 | 33.77240 | 114.69736 | 12538 ft | 356 kts | 317° |
| 2026-04-21 13:01 | 33.79166 | 114.67882 | 12268 ft | 354 kts | 317° |
| 2026-04-21 13:01 | 33.81093 | 114.66022 | 11670 ft | 354 kts | 318° |
| 2026-04-21 13:02 | 33.83000 | 114.64180 | 11251 ft | 348 kts | 318° |
| 2026-04-21 13:02 | 33.84874 | 114.62366 | 11009 ft | 345 kts | 318° |
| 2026-04-21 13:02 | 33.88617 | 114.58737 | 10954 ft | 346 kts | 318° |
| 2026-04-21 13:03 | 33.90490 | 114.56919 | 10961 ft | 346 kts | 318° |
| 2026-04-21 13:03 | 33.92365 | 114.55098 | 10959 ft | 346 kts | 318° |
| 2026-04-21 13:03 | 33.94233 | 114.53283 | 10960 ft | 346 kts | 318° |
| 2026-04-21 13:03 | 33.96103 | 114.51466 | 10959 ft | 346 kts | 318° |
| 2026-04-21 13:04 | 33.97974 | 114.49647 | 10958 ft | 345 kts | 318° |
| 2026-04-21 13:04 | 33.99843 | 114.47828 | 10962 ft | 345 kts | 318° |
| 2026-04-21 13:04 | 34.01706 | 114.46015 | 10658 ft | 343 kts | 318° |
| 2026-04-21 13:04 | 34.03527 | 114.44167 | 10245 ft | 337 kts | 312° |
| 2026-04-21 13:05 | 34.04719 | 114.41857 | 10031 ft | 319 kts | 286° |
| 2026-04-21 13:05 | 34.04880 | 114.39283 | 9852 ft | 304 kts | 258° |
| 2026-04-21 13:05 | 34.04081 | 114.36999 | 9702 ft | 291 kts | 239° |
| 2026-04-21 13:05 | 34.03040 | 114.34967 | 9559 ft | 279 kts | 239° |
| 2026-04-21 13:06 | 34.02087 | 114.32981 | 9416 ft | 269 kts | 244° |
| 2026-04-21 13:06 | 34.01484 | 114.30898 | 9280 ft | 259 kts | 255° |
| 2026-04-21 13:06 | 34.01086 | 114.28827 | 9167 ft | 249 kts | 257° |
| 2026-04-21 13:06 | 34.00741 | 114.26808 | 8947 ft | 244 kts | 258° |
| 2026-04-21 13:07 | 34.00417 | 114.24838 | 8667 ft | 242 kts | 258° |
| 2026-04-21 13:07 | 34.00102 | 114.22844 | 8352 ft | 242 kts | 261° |
| 2026-04-21 13:07 | 34.00051 | 114.20791 | 8025 ft | 243 kts | 273° |
| 2026-04-21 13:07 | 34.00211 | 114.18764 | 7730 ft | 242 kts | 275° |
| 2026-04-21 13:08 | 34.00402 | 114.16793 | 7498 ft | 239 kts | 275° |
| 2026-04-21 13:08 | 34.00594 | 114.14776 | 7225 ft | 239 kts | 275° |
| 2026-04-21 13:08 | 34.00781 | 114.12802 | 7168 ft | 241 kts | 276° |
| 2026-04-21 13:08 | 34.01090 | 114.10823 | 7158 ft | 241 kts | 289° |
| 2026-04-21 13:09 | 34.02005 | 114.09153 | 7161 ft | 242 kts | 318° |
| 2026-04-21 13:09 | 34.03513 | 114.08279 | 7164 ft | 245 kts | 350° |
| 2026-04-21 13:09 | 34.05208 | 114.08410 | 7165 ft | 247 kts | 12° |
| 2026-04-21 13:09 | 34.06876 | 114.08964 | 7122 ft | 250 kts | 15° |
| 2026-04-21 13:10 | 34.08563 | 114.09583 | 6765 ft | 255 kts | 17° |
| 2026-04-21 13:10 | 34.10237 | 114.10194 | 6619 ft | 248 kts | 16° |
| 2026-04-21 13:10 | 34.11873 | 114.10781 | 6418 ft | 243 kts | 16° |
| 2026-04-21 13:10 | 34.13490 | 114.11354 | 6157 ft | 241 kts | 17° |
| 2026-04-21 13:11 | 34.15097 | 114.11918 | 5886 ft | 240 kts | 18° |
| 2026-04-21 13:11 | 34.16689 | 114.12474 | 5682 ft | 236 kts | 17° |
| 2026-04-21 13:11 | 34.18266 | 114.13025 | 5408 ft | 236 kts | 18° |
| 2026-04-21 13:11 | 34.19837 | 114.13575 | 5124 ft | 235 kts | 18° |
| 2026-04-21 13:12 | 34.21408 | 114.14125 | 4826 ft | 235 kts | 19° |
| 2026-04-21 13:12 | 34.22966 | 114.14668 | 4613 ft | 231 kts | 19° |
| 2026-04-21 13:12 | 34.24502 | 114.15201 | 4289 ft | 229 kts | 20° |
| 2026-04-21 13:12 | 34.26018 | 114.15729 | 4087 ft | 226 kts | 20° |
| 2026-04-21 13:13 | 34.27526 | 114.16258 | 4067 ft | 226 kts | 20° |
| 2026-04-21 13:13 | 34.29040 | 114.16788 | 4071 ft | 226 kts | 20° |
| 2026-04-21 13:13 | 34.30552 | 114.17317 | 4071 ft | 226 kts | 20° |
| 2026-04-21 13:13 | 34.32065 | 114.17846 | 3979 ft | 227 kts | 20° |
| 2026-04-21 13:14 | 34.33549 | 114.18363 | 3883 ft | 214 kts | 20° |
| 2026-04-21 13:14 | 34.34954 | 114.18809 | 3880 ft | 207 kts | 14° |
| 2026-04-21 13:14 | 34.36398 | 114.18744 | 3883 ft | 213 kts | 348° |
| 2026-04-21 13:14 | 34.37752 | 114.18011 | 3874 ft | 208 kts | 335° |
| 2026-04-21 13:15 | 34.38968 | 114.17158 | 3726 ft | 198 kts | 333° |
| 2026-04-21 13:15 | 34.40147 | 114.16313 | 3451 ft | 196 kts | 335° |
| 2026-04-21 13:15 | 34.41321 | 114.15485 | 3135 ft | 195 kts | 335° |
| 2026-04-21 13:15 | 34.42460 | 114.14623 | 2904 ft | 190 kts | 330° |
| 2026-04-21 13:16 | 34.43424 | 114.13599 | 2786 ft | 181 kts | 316° |
| 2026-04-21 13:16 | 34.44125 | 114.12375 | 2661 ft | 173 kts | 302° |
| 2026-04-21 13:16 | 34.44646 | 114.11108 | 2454 ft | 164 kts | 301° |
| 2026-04-21 13:16 | 34.45112 | 114.09873 | 2287 ft | 160 kts | 298° |
| 2026-04-21 13:17 | 34.45531 | 114.08620 | 2307 ft | 161 kts | 296° |
| 2026-04-21 13:17 | 34.45948 | 114.07363 | 2303 ft | 161 kts | 298° |
| 2026-04-21 13:17 | 34.46384 | 114.06113 | 2298 ft | 161 kts | 297° |
| 2026-04-21 13:17 | 34.46825 | 114.04882 | 2302 ft | 158 kts | 297° |
| 2026-04-21 13:18 | 34.47260 | 114.03662 | 2311 ft | 158 kts | 298° |
| 2026-04-21 13:18 | 34.47690 | 114.02432 | 2314 ft | 158 kts | 297° |
| 2026-04-21 13:18 | 34.48110 | 114.01204 | 2312 ft | 157 kts | 296° |
| 2026-04-21 13:18 | 34.48526 | 113.99977 | 2315 ft | 158 kts | 297° |
| 2026-04-21 13:19 | 34.48943 | 113.98743 | 2318 ft | 158 kts | 296° |
| 2026-04-21 13:19 | 34.49361 | 113.97514 | 2305 ft | 157 kts | 296° |
| 2026-04-21 13:19 | 34.49777 | 113.96292 | 2129 ft | 157 kts | 297° |
| 2026-04-21 13:19 | 34.50195 | 113.95068 | 1899 ft | 156 kts | 297° |
| 2026-04-21 13:20 | 34.50469 | 113.94269 | 1758 ft | 154 kts | 296° |
| 2026-04-21 13:20 | 34.51009 | 113.92688 | 1458 ft | 152 kts | 297° |
| 2026-04-21 13:20 | 34.51410 | 113.91510 | 1232 ft | 150 kts | 297° |
| 2026-04-21 13:20 | 34.51808 | 113.90346 | 1024 ft | 149 kts | 295° |
| 2026-04-21 13:21 | 34.52203 | 113.89186 | 809 ft | 149 kts | 294° |
| 2026-04-21 13:21 | 34.52600 | 113.88022 | 603 ft | 149 kts | 294° |
| 2026-04-21 13:21 | 34.52990 | 113.86885 | 502 ft | 136 kts | 294° |
| 2026-04-21 13:21 | 34.53295 | 113.85987 | 504 ft | 100 kts | 294° |
| 2026-04-21 13:22 | 34.53469 | 113.85394 | 503 ft | 50 kts | 268° |
| 2026-04-21 13:22 | 34.53423 | 113.85170 | 505 ft | 13 kts | 209° |
| 2026-04-21 13:22 | 34.53365 | 113.85215 | 506 ft | 10 kts | 126° |
| 2026-04-21 13:22 | 34.53325 | 113.85231 | 506 ft | 5 kts | 191° |
| 2026-04-21 13:23 | 34.53300 | 113.85231 | 506 ft | 4 kts | 173° |
| 2026-04-21 13:23 | 34.53253 | 113.85248 | 506 ft | 12 kts | 168° |
| 2026-04-21 13:23 | 34.53191 | 113.85299 | 506 ft | 9 kts | 129° |
| 2026-04-21 13:23 | 34.53147 | 113.85314 | 506 ft | 6 kts | 193° |
| 2026-04-21 13:24 | 34.53139 | 113.85311 | 506 ft | 0 kts | 196° |